createdAt,value
2022-12-23T00:00:39.626Z,8.8
2022-12-23T00:01:40.309Z,9.7
2022-12-23T00:02:41.149Z,10.0
2022-12-23T00:03:41.871Z,10.0
2022-12-23T00:04:42.387Z,10.1
2022-12-23T00:05:42.991Z,10.7
2022-12-23T00:06:43.580Z,10.1
2022-12-23T00:07:44.174Z,10.4
2022-12-23T00:08:44.792Z,10.1
2022-12-23T00:09:45.385Z,11.1
2022-12-23T00:10:45.981Z,10.8
2022-12-23T00:11:46.589Z,10.0
2022-12-23T00:12:47.188Z,10.2
2022-12-23T00:13:47.784Z,10.2
2022-12-23T00:14:48.401Z,11.1
2022-12-23T00:15:48.995Z,10.6
2022-12-23T00:16:49.674Z,10.9
2022-12-23T00:17:50.207Z,11.2
2022-12-23T00:18:50.800Z,11.0
2022-12-23T00:19:51.415Z,11.2
2022-12-23T00:20:52.011Z,11.5
2022-12-23T00:21:52.613Z,11.3
2022-12-23T00:22:53.224Z,11.6
2022-12-23T00:23:53.814Z,10.8
2022-12-23T00:24:54.409Z,11.6
2022-12-23T00:25:55.005Z,11.6
2022-12-23T00:26:55.603Z,12.2
2022-12-23T00:27:56.201Z,11.9
2022-12-23T00:28:56.815Z,12.7
2022-12-23T00:29:57.430Z,12.2
2022-12-23T00:30:58.008Z,11.6
2022-12-23T00:31:58.674Z,12.3
2022-12-23T00:32:59.212Z,11.8
2022-12-23T00:33:59.804Z,11.6
2022-12-23T00:35:00.404Z,11.8
2022-12-23T00:36:01.052Z,10.9
2022-12-23T00:37:01.612Z,11.4
2022-12-23T00:38:02.199Z,11.4
2022-12-23T00:39:02.796Z,11.9
2022-12-23T00:40:06.796Z,12.1
2022-12-23T00:41:04.987Z,12.0
2022-12-23T00:42:05.577Z,12.3
2022-12-23T00:43:06.200Z,12.2
2022-12-23T00:44:06.789Z,11.8
2022-12-23T00:45:07.398Z,12.8
2022-12-23T00:46:08.086Z,13.1
2022-12-23T00:47:08.657Z,13.5
2022-12-23T00:48:09.254Z,12.7
2022-12-23T00:49:09.851Z,13.4
2022-12-23T00:50:10.447Z,13.5
2022-12-23T00:51:11.044Z,14.9
2022-12-23T00:52:11.659Z,15.1
2022-12-23T00:53:12.235Z,14.6
2022-12-23T00:54:12.830Z,15.0
2022-12-23T00:55:13.428Z,15.0
2022-12-23T00:56:14.022Z,15.0
2022-12-23T00:57:14.621Z,14.5
2022-12-23T00:58:15.218Z,15.0
2022-12-23T00:59:15.813Z,15.0
2022-12-23T01:00:16.406Z,14.4
2022-12-23T01:01:17.096Z,15.5
2022-12-23T01:02:17.740Z,15.4
2022-12-23T01:03:18.409Z,15.4
2022-12-23T01:04:18.964Z,16.1
2022-12-23T01:05:19.598Z,15.6
2022-12-23T01:06:20.174Z,16.4
2022-12-23T01:07:20.771Z,16.2
2022-12-23T01:08:21.393Z,16.8
2022-12-23T01:09:21.986Z,15.4
2022-12-23T01:10:22.600Z,16.4
2022-12-23T01:11:23.203Z,16.0
2022-12-23T01:12:23.795Z,16.6
2022-12-23T01:13:24.388Z,14.7
2022-12-23T01:14:24.991Z,14.4
2022-12-23T01:15:25.585Z,14.8
2022-12-23T01:16:26.233Z,13.7
2022-12-23T01:17:26.797Z,14.2
2022-12-23T01:18:27.427Z,13.9
2022-12-23T01:19:28.045Z,13.0
2022-12-23T01:20:28.626Z,13.1
2022-12-23T01:21:29.221Z,13.9
2022-12-23T01:22:29.824Z,13.8
2022-12-23T01:23:30.435Z,13.9
2022-12-23T01:24:31.050Z,13.6
2022-12-23T01:25:31.665Z,14.6
2022-12-23T01:26:32.294Z,14.7
2022-12-23T01:27:32.890Z,13.5
2022-12-23T01:28:33.486Z,14.5
2022-12-23T01:29:34.080Z,13.5
2022-12-23T01:30:34.675Z,14.8
2022-12-23T01:31:35.310Z,14.8
2022-12-23T01:32:35.908Z,15.1
2022-12-23T01:33:36.561Z,15.6
2022-12-23T01:34:37.824Z,15.0
2022-12-23T01:35:38.474Z,14.6
2022-12-23T01:36:39.071Z,14.8
2022-12-23T01:37:39.668Z,14.9
2022-12-23T01:38:40.269Z,15.6
2022-12-23T01:39:40.863Z,15.5
2022-12-23T01:40:41.458Z,15.0
2022-12-23T01:41:42.053Z,15.8
2022-12-23T01:42:42.648Z,15.8
2022-12-23T01:43:43.262Z,14.9
2022-12-23T01:44:43.860Z,15.4
2022-12-23T01:45:44.656Z,15.3
2022-12-23T01:46:45.208Z,15.8
2022-12-23T01:47:45.808Z,16.4
2022-12-23T01:48:46.398Z,15.5
2022-12-23T01:49:46.995Z,16.5
2022-12-23T01:50:47.590Z,17.1
2022-12-23T01:51:48.186Z,17.2
2022-12-23T01:52:48.802Z,17.1
2022-12-23T01:53:49.404Z,18.3
2022-12-23T01:54:49.995Z,18.4
2022-12-23T01:55:50.601Z,17.9
2022-12-23T01:56:51.194Z,18.4
2022-12-23T01:57:51.789Z,18.6
2022-12-23T01:58:52.377Z,19.0
2022-12-23T01:59:52.971Z,19.6
2022-12-23T02:00:53.585Z,19.8
2022-12-23T02:01:54.280Z,20.6
2022-12-23T02:02:54.967Z,21.7
2022-12-23T02:03:55.543Z,20.9
2022-12-23T02:04:56.410Z,21.2
2022-12-23T02:05:57.009Z,21.2
2022-12-23T02:06:57.608Z,20.5
2022-12-23T02:07:58.200Z,21.2
2022-12-23T02:08:58.818Z,23.1
2022-12-23T02:09:59.431Z,22.0
2022-12-23T02:11:00.003Z,23.0
2022-12-23T02:12:00.625Z,22.7
2022-12-23T02:13:01.216Z,23.8
2022-12-23T02:14:01.812Z,24.8
2022-12-23T02:15:02.430Z,23.7
2022-12-23T02:16:03.035Z,23.6
2022-12-23T02:17:03.678Z,25.0
2022-12-23T02:18:04.249Z,25.5
2022-12-23T02:19:04.849Z,25.9
2022-12-23T02:20:05.447Z,25.2
2022-12-23T02:21:06.075Z,24.8
2022-12-23T02:22:06.758Z,26.0
2022-12-23T02:23:07.473Z,26.7
2022-12-23T02:24:08.074Z,26.7
2022-12-23T02:25:08.692Z,26.6
2022-12-23T02:26:09.302Z,26.5
2022-12-23T02:27:09.901Z,26.8
2022-12-23T02:28:10.514Z,27.0
2022-12-23T02:29:11.111Z,28.2
2022-12-23T02:30:11.728Z,26.6
2022-12-23T02:31:12.346Z,27.9
2022-12-23T02:32:12.944Z,27.8
2022-12-23T02:33:13.520Z,27.4
2022-12-23T02:34:14.121Z,26.9
2022-12-23T02:35:14.714Z,28.3
2022-12-23T02:36:15.308Z,27.3
2022-12-23T02:37:15.935Z,26.1
2022-12-23T02:38:16.524Z,27.7
2022-12-23T02:39:17.123Z,26.6
2022-12-23T02:40:17.716Z,27.3
2022-12-23T02:41:18.330Z,25.9
2022-12-23T02:42:18.925Z,26.5
2022-12-23T02:43:19.531Z,27.9
2022-12-23T02:44:20.123Z,26.8
2022-12-23T02:45:20.714Z,25.8
2022-12-23T02:46:21.334Z,27.3
2022-12-23T02:47:21.923Z,25.8
2022-12-23T02:48:22.521Z,26.4
2022-12-23T02:49:23.123Z,26.9
2022-12-23T02:50:23.712Z,27.5
2022-12-23T02:51:24.310Z,27.4
2022-12-23T02:52:24.909Z,27.5
2022-12-23T02:53:25.504Z,26.6
2022-12-23T02:54:26.101Z,27.1
2022-12-23T02:55:26.697Z,27.6
2022-12-23T02:56:27.287Z,27.2
2022-12-23T02:57:27.889Z,26.7
2022-12-23T02:58:28.505Z,26.1
2022-12-23T02:59:29.113Z,26.2
2022-12-23T03:00:29.717Z,25.5
2022-12-23T03:01:30.431Z,23.6
2022-12-23T03:02:31.116Z,24.6
2022-12-23T03:03:31.903Z,23.9
2022-12-23T03:04:32.549Z,23.8
2022-12-23T03:05:33.171Z,22.1
2022-12-23T03:06:33.768Z,21.8
2022-12-23T03:07:34.363Z,20.8
2022-12-23T03:08:34.953Z,21.4
2022-12-23T03:09:35.552Z,22.0
2022-12-23T03:10:36.149Z,20.8
2022-12-23T03:11:36.766Z,19.4
2022-12-23T03:12:37.365Z,19.4
2022-12-23T03:13:37.962Z,19.2
2022-12-23T03:14:38.581Z,17.9
2022-12-23T03:15:39.206Z,17.8
2022-12-23T03:16:39.846Z,18.4
2022-12-23T03:17:40.449Z,18.5
2022-12-23T03:18:41.062Z,17.0
2022-12-23T03:19:41.643Z,16.6
2022-12-23T03:20:42.233Z,17.3
2022-12-23T03:21:42.831Z,17.0
2022-12-23T03:22:43.426Z,16.0
2022-12-23T03:23:44.029Z,17.2
2022-12-23T03:24:44.620Z,16.5
2022-12-23T03:25:45.240Z,16.6
2022-12-23T03:26:45.841Z,16.9
2022-12-23T03:27:46.430Z,17.2
2022-12-23T03:28:47.027Z,16.7
2022-12-23T03:29:48.073Z,17.0
2022-12-23T03:30:48.772Z,16.6
2022-12-23T03:31:49.335Z,16.2
2022-12-23T03:32:49.935Z,16.4
2022-12-23T03:33:50.556Z,16.5
2022-12-23T03:34:51.143Z,17.0
2022-12-23T03:35:51.740Z,16.9
2022-12-23T03:36:52.337Z,16.5
2022-12-23T03:37:52.929Z,16.5
2022-12-23T03:38:53.527Z,17.0
2022-12-23T03:39:54.127Z,17.4
2022-12-23T03:40:54.719Z,16.8
2022-12-23T03:41:55.329Z,17.1
2022-12-23T03:42:55.913Z,15.9
2022-12-23T03:43:56.511Z,17.0
2022-12-23T03:45:36.392Z,16.0
2022-12-23T03:45:58.622Z,15.8
2022-12-23T03:46:59.213Z,16.2
2022-12-23T03:47:59.801Z,16.0
2022-12-23T03:49:00.398Z,16.5
2022-12-23T03:50:00.996Z,15.9
2022-12-23T03:51:01.600Z,15.5
2022-12-23T03:52:02.186Z,14.9
2022-12-23T03:53:02.782Z,15.8
2022-12-23T03:54:03.380Z,16.4
2022-12-23T03:55:03.997Z,15.1
2022-12-23T03:56:04.595Z,16.0
2022-12-23T03:57:05.203Z,15.9
2022-12-23T03:58:05.786Z,15.1
2022-12-23T03:59:06.383Z,15.2
2022-12-23T04:00:06.987Z,15.9
2022-12-23T04:01:07.612Z,16.2
2022-12-23T04:02:08.359Z,15.8
2022-12-23T04:03:08.961Z,15.2
2022-12-23T04:04:09.612Z,15.9
2022-12-23T04:05:10.267Z,15.4
2022-12-23T04:06:10.889Z,15.0
2022-12-23T04:07:11.489Z,16.4
2022-12-23T04:08:12.076Z,15.3
2022-12-23T04:09:15.444Z,14.4
2022-12-23T04:10:14.283Z,14.3
2022-12-23T04:11:14.901Z,14.6
2022-12-23T04:12:15.495Z,12.9
2022-12-23T04:13:16.096Z,13.6
2022-12-23T04:14:16.692Z,14.1
2022-12-23T04:15:17.292Z,14.4
2022-12-23T04:16:17.921Z,14.3
2022-12-23T04:17:18.532Z,13.9
2022-12-23T04:18:19.138Z,14.3
2022-12-23T04:19:19.748Z,13.0
2022-12-23T04:20:20.344Z,12.0
2022-12-23T04:21:20.968Z,12.9
2022-12-23T04:22:21.555Z,12.5
2022-12-23T04:23:22.179Z,14.1
2022-12-23T04:24:22.779Z,12.8
2022-12-23T04:25:23.363Z,13.8
2022-12-23T04:26:23.964Z,12.6
2022-12-23T04:27:24.582Z,13.2
2022-12-23T04:28:25.186Z,11.5
2022-12-23T04:29:25.787Z,12.5
2022-12-23T04:30:31.650Z,11.7
2022-12-23T04:31:28.029Z,11.9
2022-12-23T04:32:28.619Z,11.0
2022-12-23T04:33:29.218Z,11.3
2022-12-23T04:34:29.812Z,11.1
2022-12-23T04:35:30.408Z,11.9
2022-12-23T04:36:31.006Z,10.8
2022-12-23T04:37:31.606Z,10.9
2022-12-23T04:38:32.220Z,11.1
2022-12-23T04:39:32.816Z,10.4
2022-12-23T04:40:33.415Z,10.6
2022-12-23T04:41:34.014Z,10.1
2022-12-23T04:42:34.621Z,10.4
2022-12-23T04:43:35.198Z,10.5
2022-12-23T04:44:35.798Z,10.3
2022-12-23T04:45:36.401Z,10.0
2022-12-23T04:46:37.058Z,10.3
2022-12-23T04:47:37.699Z,9.6
2022-12-23T04:48:38.305Z,9.7
2022-12-23T04:49:38.897Z,9.1
2022-12-23T04:50:39.515Z,9.9
2022-12-23T04:51:40.106Z,9.3
2022-12-23T04:52:40.706Z,9.0
2022-12-23T04:53:41.308Z,8.9
2022-12-23T04:54:46.031Z,9.1
2022-12-23T04:55:43.492Z,9.0
2022-12-23T04:56:44.104Z,9.4
2022-12-23T04:57:44.692Z,8.5
2022-12-23T04:58:45.289Z,8.4
2022-12-23T04:59:45.886Z,8.9
2022-12-23T05:00:46.521Z,9.4
2022-12-23T05:01:47.384Z,8.6
2022-12-23T05:02:48.149Z,8.5
2022-12-23T05:03:48.772Z,8.5
2022-12-23T05:04:49.387Z,6.7
2022-12-23T05:05:49.974Z,5.1
2022-12-23T05:06:50.575Z,4.6
2022-12-23T05:07:51.170Z,4.5
2022-12-23T05:08:51.760Z,4.2
2022-12-23T05:09:52.357Z,3.3
2022-12-23T05:10:52.965Z,3.9
2022-12-23T05:11:53.575Z,3.9
2022-12-23T05:12:54.169Z,4.1
2022-12-23T05:13:54.764Z,4.2
2022-12-23T05:14:55.367Z,3.5
2022-12-23T05:15:56.046Z,3.6
2022-12-23T05:16:59.538Z,3.4
2022-12-23T05:17:58.161Z,3.8
2022-12-23T05:18:58.746Z,3.0
2022-12-23T05:19:59.345Z,3.1
2022-12-23T05:20:59.935Z,3.0
2022-12-23T05:22:00.527Z,3.2
2022-12-23T05:23:01.123Z,3.2
2022-12-23T05:24:01.711Z,3.0
2022-12-23T05:25:02.304Z,3.1
2022-12-23T05:26:02.900Z,3.2
2022-12-23T05:27:03.497Z,3.1
2022-12-23T05:28:04.086Z,2.8
2022-12-23T05:29:04.682Z,3.0
2022-12-23T05:30:05.273Z,2.7
2022-12-23T05:31:05.912Z,2.8
2022-12-23T05:32:06.539Z,3.0
2022-12-23T05:33:07.135Z,3.2
2022-12-23T05:34:07.775Z,3.5
2022-12-23T05:35:08.380Z,4.1
2022-12-23T05:36:08.978Z,4.1
2022-12-23T05:37:09.566Z,4.3
2022-12-23T05:38:10.169Z,4.5
2022-12-23T05:39:10.758Z,5.2
2022-12-23T05:40:11.379Z,5.0
2022-12-23T05:41:12.164Z,5.6
2022-12-23T05:42:12.693Z,5.5
2022-12-23T05:43:13.293Z,4.9
2022-12-23T05:44:13.899Z,4.9
2022-12-23T05:45:14.497Z,4.8
2022-12-23T05:46:15.155Z,5.0
2022-12-23T05:47:15.726Z,5.7
2022-12-23T05:48:16.321Z,5.8
2022-12-23T05:49:16.913Z,5.7
2022-12-23T05:50:17.533Z,5.7
2022-12-23T05:51:18.127Z,6.3
2022-12-23T05:52:18.737Z,6.9
2022-12-23T05:53:19.353Z,6.4
2022-12-23T05:54:19.969Z,6.7
2022-12-23T05:55:20.565Z,6.5
2022-12-23T05:56:21.160Z,7.4
2022-12-23T05:57:21.772Z,7.6
2022-12-23T05:58:22.365Z,7.5
2022-12-23T05:59:26.470Z,8.2
2022-12-23T06:00:24.552Z,8.7
2022-12-23T06:01:25.165Z,8.6
2022-12-23T06:02:25.944Z,8.7
2022-12-23T06:03:26.760Z,8.7
2022-12-23T06:04:27.416Z,9.2
2022-12-23T06:05:28.007Z,9.8
2022-12-23T06:06:28.599Z,9.5
2022-12-23T06:07:29.197Z,10.2
2022-12-23T06:08:29.798Z,10.0
2022-12-23T06:09:30.409Z,10.0
2022-12-23T06:10:31.024Z,10.1
2022-12-23T06:11:31.627Z,10.3
2022-12-23T06:12:32.219Z,9.9
2022-12-23T06:13:32.815Z,10.9
2022-12-23T06:14:33.414Z,9.4
2022-12-23T06:15:34.009Z,10.2
2022-12-23T06:16:34.687Z,9.7
2022-12-23T06:17:35.225Z,10.8
2022-12-23T06:18:35.836Z,9.7
2022-12-23T06:19:36.434Z,10.5
2022-12-23T06:20:37.035Z,10.7
2022-12-23T06:21:37.626Z,10.0
2022-12-23T06:22:38.257Z,9.8
2022-12-23T06:23:38.835Z,10.1
2022-12-23T06:24:39.435Z,10.9
2022-12-23T06:25:40.043Z,10.5
2022-12-23T06:26:40.629Z,11.1
2022-12-23T06:27:41.248Z,10.2
2022-12-23T06:28:41.826Z,10.8
2022-12-23T06:29:42.419Z,10.0
2022-12-23T06:30:43.026Z,9.9
2022-12-23T06:31:43.677Z,10.8
2022-12-23T06:32:44.225Z,10.6
2022-12-23T06:33:44.823Z,10.2
2022-12-23T06:34:45.428Z,10.4
2022-12-23T06:35:46.016Z,11.0
2022-12-23T06:36:46.621Z,10.3
2022-12-23T06:37:47.219Z,11.0
2022-12-23T06:38:47.836Z,10.0
2022-12-23T06:39:48.420Z,11.3
2022-12-23T06:40:49.018Z,10.6
2022-12-23T06:41:49.614Z,11.2
2022-12-23T06:42:50.210Z,11.0
2022-12-23T06:43:54.285Z,10.7
2022-12-23T06:44:52.398Z,11.3
2022-12-23T06:45:53.048Z,10.8
2022-12-23T06:46:53.623Z,11.1
2022-12-23T06:47:54.234Z,11.8
2022-12-23T06:48:54.827Z,11.8
2022-12-23T06:49:55.413Z,12.1
2022-12-23T06:50:56.048Z,12.8
2022-12-23T06:51:56.655Z,11.8
2022-12-23T06:52:57.238Z,12.3
2022-12-23T06:53:57.831Z,12.1
2022-12-23T06:54:58.451Z,13.5
2022-12-23T06:55:59.065Z,11.5
2022-12-23T06:56:59.683Z,12.7
2022-12-23T06:58:00.297Z,12.4
2022-12-23T06:59:00.899Z,12.9
2022-12-23T07:00:01.487Z,13.2
2022-12-23T07:01:02.115Z,12.7
2022-12-23T07:02:02.917Z,12.4
2022-12-23T07:03:03.743Z,12.9
2022-12-23T07:04:04.447Z,11.9
2022-12-23T07:05:05.050Z,12.0
2022-12-23T07:06:05.639Z,13.1
2022-12-23T07:07:06.238Z,12.5
2022-12-23T07:08:06.851Z,12.7
2022-12-23T07:09:07.457Z,13.5
2022-12-23T07:10:08.056Z,15.1
2022-12-23T07:11:08.695Z,16.4
2022-12-23T07:12:09.269Z,19.4
2022-12-23T07:13:09.883Z,17.6
2022-12-23T07:14:10.481Z,17.4
2022-12-23T07:15:11.086Z,17.2
2022-12-23T07:16:11.712Z,16.0
2022-12-23T07:17:12.308Z,17.0
2022-12-23T07:18:12.887Z,15.9
2022-12-23T07:19:13.485Z,17.8
2022-12-23T07:20:14.083Z,16.1
2022-12-23T07:21:24.570Z,16.0
2022-12-23T07:22:15.295Z,15.9
2022-12-23T07:23:15.893Z,14.9
2022-12-23T07:24:16.516Z,14.3
2022-12-23T07:25:17.129Z,14.5
2022-12-23T07:26:17.725Z,15.1
2022-12-23T07:27:18.325Z,14.4
2022-12-23T07:28:18.923Z,14.4
2022-12-23T07:29:19.523Z,14.1
2022-12-23T07:30:20.138Z,14.8
2022-12-23T07:31:20.779Z,14.4
2022-12-23T07:32:21.371Z,15.1
2022-12-23T07:33:21.975Z,15.0
2022-12-23T07:34:22.572Z,15.2
2022-12-23T07:35:23.174Z,15.5
2022-12-23T07:36:23.786Z,16.4
2022-12-23T07:37:24.416Z,15.4
2022-12-23T07:38:25.010Z,16.4
2022-12-23T07:39:25.621Z,16.4
2022-12-23T07:40:26.223Z,16.4
2022-12-23T07:41:26.838Z,15.9
2022-12-23T07:42:44.974Z,15.4
2022-12-23T07:43:29.047Z,17.3
2022-12-23T07:44:29.799Z,15.3
2022-12-23T07:45:30.417Z,16.8
2022-12-23T07:46:31.114Z,16.8
2022-12-23T07:47:31.687Z,16.6
2022-12-23T07:48:32.278Z,15.7
2022-12-23T07:49:32.885Z,16.4
2022-12-23T07:50:33.489Z,16.2
2022-12-23T07:51:34.083Z,16.9
2022-12-23T07:52:34.679Z,16.9
2022-12-23T07:53:35.303Z,17.5
2022-12-23T07:54:35.917Z,16.6
2022-12-23T07:55:36.518Z,15.6
2022-12-23T07:56:37.118Z,14.5
2022-12-23T07:57:37.972Z,17.7
2022-12-23T07:58:38.683Z,16.7
2022-12-23T07:59:39.282Z,17.2
2022-12-23T08:00:39.881Z,16.0
2022-12-23T08:01:40.580Z,16.9
2022-12-23T08:02:41.418Z,16.0
2022-12-23T08:03:42.068Z,17.3
2022-12-23T08:04:46.021Z,16.9
2022-12-23T08:05:44.254Z,17.5
2022-12-23T08:06:44.866Z,18.8
2022-12-23T08:07:45.485Z,16.7
2022-12-23T08:08:46.116Z,17.4
2022-12-23T08:09:46.711Z,16.9
2022-12-23T08:10:48.463Z,17.7
2022-12-23T08:11:48.913Z,18.1
2022-12-23T08:12:49.524Z,18.2
2022-12-23T08:13:50.127Z,18.9
2022-12-23T08:14:50.726Z,17.4
2022-12-23T08:15:51.322Z,18.4
2022-12-23T08:16:51.972Z,18.4
2022-12-23T08:17:52.559Z,17.8
2022-12-23T08:18:53.156Z,16.9
2022-12-23T08:19:53.758Z,18.3
2022-12-23T08:20:54.356Z,17.8
2022-12-23T08:21:55.007Z,18.3
2022-12-23T08:22:55.550Z,17.9
2022-12-23T08:23:56.183Z,18.3
2022-12-23T08:24:56.787Z,18.1
2022-12-23T08:25:57.383Z,18.6
2022-12-23T08:26:57.981Z,17.7
2022-12-23T08:27:58.602Z,18.6
2022-12-23T08:28:59.199Z,18.3
2022-12-23T08:29:59.805Z,17.6
2022-12-23T08:31:00.507Z,18.2
2022-12-23T08:32:01.062Z,19.4
2022-12-23T08:33:01.664Z,18.6
2022-12-23T08:34:02.264Z,19.0
2022-12-23T08:35:02.871Z,18.9
2022-12-23T08:36:03.460Z,17.4
2022-12-23T08:37:04.166Z,18.4
2022-12-23T08:38:04.717Z,18.0
2022-12-23T08:39:05.305Z,20.6
2022-12-23T08:40:05.900Z,21.2
2022-12-23T08:41:06.503Z,22.5
2022-12-23T08:42:07.133Z,20.6
2022-12-23T08:43:07.753Z,21.9
2022-12-23T08:44:08.368Z,23.0
2022-12-23T08:45:08.986Z,20.9
2022-12-23T08:46:09.656Z,23.5
2022-12-23T08:47:10.207Z,26.9
2022-12-23T08:48:10.810Z,24.3
2022-12-23T08:49:11.409Z,22.5
2022-12-23T08:50:12.011Z,26.6
2022-12-23T08:51:12.620Z,26.3
2022-12-23T08:52:13.209Z,22.0
2022-12-23T08:53:13.813Z,23.6
2022-12-23T08:54:14.423Z,26.2
2022-12-23T08:55:15.035Z,24.5
2022-12-23T08:56:15.664Z,29.7
2022-12-23T08:57:16.284Z,24.7
2022-12-23T08:58:16.861Z,19.9
2022-12-23T08:59:19.700Z,18.1
2022-12-23T09:00:18.071Z,19.4
2022-12-23T09:01:18.707Z,20.8
2022-12-23T09:02:19.407Z,23.3
2022-12-23T09:03:20.074Z,18.2
2022-12-23T09:04:20.718Z,20.2
2022-12-23T09:05:21.326Z,20.5
2022-12-23T09:06:28.342Z,18.9
2022-12-23T09:07:23.518Z,17.9
2022-12-23T09:08:24.130Z,19.0
2022-12-23T09:09:24.723Z,18.9
2022-12-23T09:10:25.321Z,18.7
2022-12-23T09:11:25.921Z,17.1
2022-12-23T09:12:26.573Z,16.6
2022-12-23T09:13:34.820Z,16.0
2022-12-23T09:14:28.744Z,15.5
2022-12-23T09:15:29.388Z,16.0
2022-12-23T09:16:30.032Z,15.7
2022-12-23T09:17:30.670Z,15.1
2022-12-23T09:18:31.269Z,16.3
2022-12-23T09:19:31.871Z,16.1
2022-12-23T09:20:32.475Z,15.1
2022-12-23T09:21:33.086Z,15.5
2022-12-23T09:22:33.675Z,15.8
2022-12-23T09:23:34.309Z,15.6
2022-12-23T09:24:34.930Z,14.7
2022-12-23T09:25:35.557Z,14.7
2022-12-23T09:26:36.151Z,14.9
2022-12-23T09:27:36.752Z,13.8
2022-12-23T09:28:37.371Z,14.2
2022-12-23T09:29:38.000Z,15.5
2022-12-23T09:30:38.593Z,14.7
2022-12-23T09:31:39.249Z,15.4
2022-12-23T09:32:39.852Z,14.9
2022-12-23T09:33:40.451Z,14.8
2022-12-23T09:34:41.060Z,14.6
2022-12-23T09:35:41.673Z,15.2
2022-12-23T09:36:42.277Z,16.2
2022-12-23T09:37:42.882Z,15.4
2022-12-23T09:38:43.481Z,15.4
2022-12-23T09:39:44.078Z,15.2
2022-12-23T09:40:44.683Z,15.5
2022-12-23T09:41:45.278Z,16.5
2022-12-23T09:42:45.882Z,16.5
2022-12-23T09:43:46.486Z,15.9
2022-12-23T09:44:47.083Z,17.3
2022-12-23T09:45:47.706Z,17.0
2022-12-23T09:46:48.393Z,16.9
2022-12-23T09:47:48.995Z,16.7
2022-12-23T09:48:49.618Z,17.6
2022-12-23T09:49:50.240Z,17.2
2022-12-23T09:50:50.837Z,17.0
2022-12-23T09:51:51.455Z,17.2
2022-12-23T09:52:52.036Z,17.0
2022-12-23T09:53:52.637Z,16.6
2022-12-23T09:54:53.276Z,15.9
2022-12-23T09:55:53.857Z,15.0
2022-12-23T09:56:54.461Z,14.5
2022-12-23T09:57:55.061Z,15.0
2022-12-23T09:58:55.660Z,15.0
2022-12-23T09:59:56.261Z,15.9
2022-12-23T10:00:56.859Z,15.1
2022-12-23T10:01:57.557Z,14.9
2022-12-23T10:02:58.358Z,14.8
2022-12-23T10:03:59.189Z,15.9
2022-12-23T10:04:59.789Z,15.8
2022-12-23T10:06:00.396Z,16.2
2022-12-23T10:07:03.048Z,15.6
2022-12-23T10:08:02.605Z,16.5
2022-12-23T10:09:03.207Z,15.3
2022-12-23T10:10:03.820Z,15.5
2022-12-23T10:11:04.432Z,16.3
2022-12-23T10:12:05.049Z,16.3
2022-12-23T10:13:05.652Z,16.1
2022-12-23T10:14:06.254Z,16.7
2022-12-23T10:15:06.873Z,16.1
2022-12-23T10:16:07.479Z,17.2
2022-12-23T10:17:08.051Z,15.9
2022-12-23T10:18:08.653Z,15.7
2022-12-23T10:19:09.260Z,16.1
2022-12-23T10:20:09.858Z,16.4
2022-12-23T10:21:10.461Z,16.2
2022-12-23T10:22:11.062Z,17.2
2022-12-23T10:23:11.668Z,17.7
2022-12-23T10:24:12.269Z,15.9
2022-12-23T10:25:12.908Z,16.1
2022-12-23T10:26:13.493Z,15.5
2022-12-23T10:27:14.118Z,15.7
2022-12-23T10:28:14.734Z,15.5
2022-12-23T10:29:18.753Z,15.8
2022-12-23T10:32:20.235Z,14.8
2022-12-23T10:33:20.740Z,14.6
2022-12-23T10:34:21.372Z,14.4
2022-12-23T10:35:21.948Z,15.4
2022-12-23T10:36:22.597Z,15.3
2022-12-23T10:37:23.173Z,14.8
2022-12-23T10:38:23.775Z,14.9
2022-12-23T10:39:24.384Z,15.1
2022-12-23T10:40:25.010Z,15.2
2022-12-23T10:41:25.598Z,14.5
2022-12-23T10:42:26.203Z,15.8
2022-12-23T10:43:26.844Z,16.2
2022-12-23T10:44:27.429Z,16.5
2022-12-23T10:45:28.025Z,16.4
2022-12-23T10:46:28.694Z,16.1
2022-12-23T10:47:29.241Z,15.5
2022-12-23T10:48:29.843Z,17.4
2022-12-23T10:49:31.440Z,16.5
2022-12-23T10:50:32.041Z,16.5
2022-12-23T10:51:32.647Z,15.8
2022-12-23T10:52:33.248Z,15.4
2022-12-23T10:53:33.852Z,15.0
2022-12-23T10:54:34.454Z,14.8
2022-12-23T10:55:35.053Z,14.0
2022-12-23T10:56:35.653Z,13.9
2022-12-23T10:57:36.254Z,14.5
2022-12-23T10:58:37.131Z,15.2
2022-12-23T10:59:37.727Z,15.1
2022-12-23T11:00:38.364Z,14.9
2022-12-23T11:01:39.121Z,14.1
2022-12-23T11:02:39.851Z,12.8
2022-12-23T11:03:40.551Z,13.3
2022-12-23T11:04:41.184Z,13.2
2022-12-23T11:05:41.797Z,12.6
2022-12-23T11:06:42.412Z,12.8
2022-12-23T11:07:45.074Z,13.6
2022-12-23T11:08:43.614Z,13.6
2022-12-23T11:09:44.264Z,14.1
2022-12-23T11:10:44.817Z,13.6
2022-12-23T11:11:45.417Z,12.5
2022-12-23T11:12:46.023Z,13.8
2022-12-23T11:13:46.642Z,12.5
2022-12-23T11:14:47.245Z,11.9
2022-12-23T11:15:47.842Z,11.8
2022-12-23T11:16:48.742Z,11.3
2022-12-23T11:17:49.279Z,11.4
2022-12-23T11:18:49.889Z,12.2
2022-12-23T11:19:50.484Z,12.5
2022-12-23T11:20:51.085Z,12.4
2022-12-23T11:21:51.686Z,12.9
2022-12-23T11:22:52.991Z,12.8
2022-12-23T11:23:53.592Z,11.6
2022-12-23T11:24:54.194Z,12.6
2022-12-23T11:25:54.818Z,11.7
2022-12-23T11:26:55.422Z,12.5
2022-12-23T11:27:56.038Z,12.5
2022-12-23T11:28:56.659Z,12.6
2022-12-23T11:29:57.260Z,11.7
2022-12-23T11:30:57.883Z,11.8
2022-12-23T11:31:58.532Z,12.7
2022-12-23T11:32:59.087Z,12.8
2022-12-23T11:33:59.691Z,12.8
2022-12-23T11:35:00.319Z,13.1
2022-12-23T11:36:00.890Z,13.1
2022-12-23T11:37:05.465Z,14.1
2022-12-23T11:38:03.086Z,15.3
2022-12-23T11:39:03.699Z,18.3
2022-12-23T11:40:04.288Z,20.1
2022-12-23T11:41:04.897Z,18.8
2022-12-23T11:42:05.517Z,23.4
2022-12-23T11:43:06.132Z,19.4
2022-12-23T11:44:06.727Z,22.2
2022-12-23T11:45:07.341Z,22.1
2022-12-23T11:46:07.961Z,16.8
2022-12-23T11:47:08.538Z,16.5
2022-12-23T11:48:09.160Z,17.4
2022-12-23T11:49:09.764Z,12.8
2022-12-23T11:50:10.364Z,28.6
2022-12-23T11:51:10.966Z,16.9
2022-12-23T11:52:11.571Z,18.1
2022-12-23T11:53:12.173Z,15.0
2022-12-23T11:54:12.783Z,13.3
2022-12-23T11:55:13.380Z,13.9
2022-12-23T11:56:13.980Z,13.6
2022-12-23T11:57:14.633Z,15.8
2022-12-23T11:58:15.223Z,14.2
2022-12-23T11:59:15.828Z,13.8
2022-12-23T12:00:16.458Z,14.5
2022-12-23T12:01:17.053Z,13.7
2022-12-23T12:02:17.738Z,14.0
2022-12-23T12:03:18.348Z,15.0
2022-12-23T12:04:18.960Z,14.1
2022-12-23T12:05:19.565Z,14.5
2022-12-23T12:06:20.171Z,14.2
2022-12-23T12:07:20.790Z,14.9
2022-12-23T12:08:21.387Z,16.4
2022-12-23T12:09:22.002Z,14.5
2022-12-23T12:10:22.591Z,18.2
2022-12-23T12:11:23.204Z,15.1
2022-12-23T12:12:23.809Z,17.2
2022-12-23T12:13:24.405Z,15.7
2022-12-23T12:14:25.003Z,15.4
2022-12-23T12:15:25.608Z,14.1
2022-12-23T12:16:26.283Z,15.6
2022-12-23T12:17:26.849Z,20.2
2022-12-23T12:18:27.450Z,19.5
2022-12-23T12:19:28.054Z,15.9
2022-12-23T12:20:28.673Z,15.0
2022-12-23T12:21:29.278Z,17.8
2022-12-23T12:22:29.886Z,15.3
2022-12-23T12:23:30.485Z,17.5
2022-12-23T12:24:31.091Z,13.0
2022-12-23T12:25:36.334Z,12.9
2022-12-23T12:26:33.279Z,14.0
2022-12-23T12:27:33.902Z,15.3
2022-12-23T12:28:34.515Z,12.9
2022-12-23T12:29:35.112Z,15.5
2022-12-23T12:30:35.739Z,16.1
2022-12-23T12:31:36.316Z,14.1
2022-12-23T12:32:36.918Z,16.9
2022-12-23T12:33:37.545Z,14.3
2022-12-23T12:34:38.121Z,15.3
2022-12-23T12:35:38.727Z,14.7
2022-12-23T12:36:39.363Z,17.1
2022-12-23T12:37:39.986Z,16.0
2022-12-23T12:38:40.570Z,16.3
2022-12-23T12:39:41.175Z,15.9
2022-12-23T12:40:41.777Z,17.8
2022-12-23T12:41:42.381Z,16.4
2022-12-23T12:42:42.987Z,14.9
2022-12-23T12:43:43.603Z,16.8
2022-12-23T12:44:44.208Z,14.9
2022-12-23T12:45:44.815Z,17.0
2022-12-23T12:46:45.423Z,15.4
2022-12-23T12:47:55.769Z,17.7
2022-12-23T12:48:47.617Z,19.8
2022-12-23T12:49:48.213Z,18.8
2022-12-23T12:50:48.814Z,20.2
2022-12-23T12:51:49.421Z,19.0
2022-12-23T12:52:50.019Z,18.6
2022-12-23T12:53:50.621Z,19.6
2022-12-23T12:54:51.219Z,18.4
2022-12-23T12:55:52.827Z,17.9
2022-12-23T12:56:53.433Z,18.6
2022-12-23T12:57:54.015Z,19.2
2022-12-23T12:58:54.632Z,17.7
2022-12-23T12:59:59.926Z,21.4
2022-12-23T13:00:56.848Z,18.5
2022-12-23T13:01:57.492Z,19.6
2022-12-23T13:02:58.142Z,20.0
2022-12-23T13:03:58.665Z,16.5
2022-12-23T13:04:59.261Z,17.4
2022-12-23T13:05:59.871Z,17.9
2022-12-23T13:07:00.485Z,23.1
2022-12-23T13:08:01.100Z,19.2
2022-12-23T13:09:01.709Z,19.4
2022-12-23T13:10:02.330Z,17.1
2022-12-23T13:11:02.906Z,20.4
2022-12-23T13:12:03.514Z,19.8
2022-12-23T13:13:04.111Z,18.1
2022-12-23T13:14:04.713Z,19.4
2022-12-23T13:15:05.310Z,19.1
2022-12-23T13:16:05.913Z,18.3
2022-12-23T13:17:06.545Z,18.9
2022-12-23T13:18:07.135Z,19.1
2022-12-23T13:19:07.737Z,18.0
2022-12-23T13:20:08.406Z,19.0
2022-12-23T13:21:09.002Z,20.0
2022-12-23T13:22:09.607Z,21.7
2022-12-23T13:23:34.297Z,18.7
2022-12-23T13:24:11.794Z,25.9
2022-12-23T13:25:12.389Z,22.4
2022-12-23T13:26:12.993Z,19.3
2022-12-23T13:27:13.598Z,26.1
2022-12-23T13:28:14.199Z,22.7
2022-12-23T13:29:14.815Z,22.0
2022-12-23T13:30:15.409Z,25.0
2022-12-23T13:31:16.154Z,28.7
2022-12-23T13:32:16.625Z,26.3